Date,TemperatureHighF,TemperatureAvgF,TemperatureLowF,DewpointHighF,DewpointAvgF,DewpointLowF,HumidityHigh,HumidityAvg,HumidityLow,PressureMaxIn,PressureMinIn,WindSpeedMaxMPH,WindSpeedAvgMPH,GustSpeedMaxMPH,PrecipitationSumIn
2013-10-1,85.0,65.4,49.9,73.7,57.5,49.9,100,81,37,0.00,40.00,5,0,8,0.00
2013-10-2,86.4,67.8,52.4,74.0,60.6,52.4,100,83,37,0.00,40.00,5,0,6,0.00
2013-10-3,85.7,69.0,54.9,73.9,61.0,54.6,100,81,37,0.00,40.00,8,1,8,0.00
2013-10-4,89.3,69.9,54.9,74.2,61.3,54.9,100,80,34,0.00,40.00,5,0,6,0.00
2013-10-5,91.3,71.7,55.7,79.4,63.1,55.7,100,80,32,0.00,40.00,4,0,6,0.00
2013-10-6,86.4,71.4,57.8,79.6,65.1,57.8,100,85,44,0.00,40.00,9,1,10,0.00
2013-10-7,80.0,72.1,67.9,78.7,71.9,67.9,100,99,85,17.72,17.72,6,1,8,0.00
2013-10-8,68.3,62.5,56.4,68.3,60.7,56.4,100,94,74,17.72,17.72,7,2,8,0.00
2013-10-9,79.8,64.4,50.6,58.4,52.8,44.4,100,73,32,17.72,17.72,7,1,8,0.00
2013-10-10,82.1,62.3,44.3,65.0,52.1,44.3,100,76,32,17.72,17.72,6,0,9,0.00
2013-10-11,83.7,63.8,48.5,71.2,55.1,48.5,100,80,37,17.72,17.72,0,0,0,0.00
2013-10-12,87.2,66.1,51.9,71.9,58.0,51.9,100,81,34,17.72,17.72,0,0,0,0.00
2013-10-13,77.3,64.8,59.4,73.2,64.1,59.4,100,98,71,17.72,17.72,0,0,0,0.00
2013-10-15,75.8,68.0,58.4,66.0,60.3,54.6,100,79,51,17.72,17.72,0,0,8,0.00
2013-10-16,82.5,65.5,54.4,71.7,59.3,53.0,100,84,37,17.72,17.72,0,0,0,0.00
2013-10-17,77.4,67.0,57.3,73.7,64.8,57.3,100,94,69,17.72,17.72,8,1,8,0.00
2013-10-18,75.5,67.5,61.8,71.7,65.5,61.8,100,94,71,17.72,17.72,8,1,8,0.00
2013-10-19,68.6,61.2,55.1,65.7,59.0,53.8,100,93,62,17.72,17.72,8,1,8,0.00
2013-10-20,75.3,58.8,44.3,65.7,49.8,43.3,100,78,34,17.72,17.72,5,1,6,0.00
2013-10-21,74.2,57.7,43.1,66.3,53.9,43.1,100,89,53,17.72,17.72,6,1,6,0.00
2013-10-22,67.5,60.4,55.3,67.5,60.4,55.3,100,100,100,17.72,17.72,4,0,4,0.00
2013-10-23,70.2,57.9,44.1,60.2,45.9,30.7,100,70,34,17.72,17.72,10,3,10,0.00
2013-10-24,67.4,48.6,30.8,51.9,39.7,30.8,100,77,34,17.72,17.72,8,1,8,0.00
2013-10-25,64.3,47.1,32.3,45.8,38.3,29.7,100,78,34,17.72,17.72,6,1,6,0.00
2013-10-26,64.7,43.1,25.8,47.7,34.3,25.8,100,78,34,17.72,17.72,10,1,10,0.00
2013-10-27,74.9,55.6,36.0,62.0,47.6,36.0,100,80,41,17.72,17.72,14,1,14,0.00
2013-10-28,69.7,59.1,53.7,67.0,57.2,52.1,100,94,55,17.72,17.72,4,0,4,0.00
2013-10-29,76.7,59.5,47.6,68.5,54.3,47.6,100,86,48,17.72,17.72,0,0,2,0.00
2013-10-30,80.9,64.6,52.1,65.2,55.8,50.6,100,79,39,17.72,17.72,0,0,0,0.00
2013-10-31,77.3,65.0,53.0,69.5,60.8,53.0,100,88,55,17.72,17.72,13,3,15,0.00